Time;durP1;ratioP1;P1;durP2;ratioP2;P2;SDS_P1;SDS_P2;PMS_P1;PMS_P2;Temp;Humidity;BMP_temperature;BMP_pressure;BME280_temperature;BME280_humidity;BME280_pressure;Samples;Min_cycle;Max_cycle;Signal;HPM_P1;HPM_P2
2021/03/27 00:00:26;;;;;;;22.33;10.25;;;;;;;9.82;67.85;96020.03;1277750;23;20508;-76
2021/03/27 00:00:58;;;;;;;16.55;10.13;;;;;;;9.87;68.56;96020.06;1265790;23;20021;-75
2021/03/27 00:01:37;;;;;;;14.55;9.10;;;;;;;9.97;67.34;96008.59;1265749;23;20520;-75
2021/03/27 00:02:07;;;;;;;12.73;8.77;;;;;;;10.11;67.32;96017.69;1271961;23;20112;-75
2021/03/27 00:02:41;;;;;;;15.97;7.73;;;;;;;10.19;67.30;96011.84;1276372;23;20005;-77
2021/03/27 00:03:18;;;;;;;23.00;7.60;;;;;;;10.32;67.23;96011.31;1278016;23;20102;-75
2021/03/27 00:03:51;;;;;;;12.68;6.65;;;;;;;10.47;66.35;96013.19;1271944;23;20004;-75
2021/03/27 00:04:42;;;;;;;16.10;6.40;;;;;;;10.62;65.76;96015.84;1265863;23;20044;-74
2021/03/27 00:05:25;;;;;;;10.88;5.13;;;;;;;10.70;66.31;96009.16;1265966;23;20054;-74
2021/03/27 00:06:04;;;;;;;11.88;6.25;;;;;;;10.77;66.13;96020.38;1266835;23;20089;-75
2021/03/27 00:06:39;;;;;;;10.98;5.65;;;;;;;10.79;66.46;96009.41;1259622;23;20021;-75
2021/03/27 00:07:13;;;;;;;9.27;5.25;;;;;;;10.79;66.05;96002.19;1259207;23;20479;-75
2021/03/27 00:07:44;;;;;;;8.95;4.72;;;;;;;10.83;65.83;95991.75;1257405;23;20302;-74
2021/03/27 00:08:26;;;;;;;7.83;4.77;;;;;;;10.91;65.77;95986.66;1263953;23;20006;-75
2021/03/27 00:09:14;;;;;;;6.05;3.55;;;;;;;11.19;63.35;95971.03;1275930;23;20002;-76
2021/03/27 00:09:52;;;;;;;7.65;4.60;;;;;;;11.25;63.61;95979.84;1278172;23;19993;-76
2021/03/27 00:10:57;;;;;;;5.57;3.60;;;;;;;11.34;62.68;95981.69;1278140;23;20001;-75
2021/03/27 00:11:48;;;;;;;6.82;3.90;;;;;;;11.41;62.78;95984.06;1264028;23;20007;-76
2021/03/27 00:12:29;;;;;;;6.88;4.07;;;;;;;11.44;63.57;95984.31;1278437;23;20009;-76
2021/03/27 00:13:10;;;;;;;8.70;4.20;;;;;;;11.42;63.66;95977.66;1278198;23;20368;-76
2021/03/27 00:13:59;;;;;;;10.80;4.80;;;;;;;11.40;64.07;95974.44;1278126;23;20364;-76
2021/03/27 00:14:47;;;;;;;8.48;4.28;;;;;;;11.34;64.12;95970.97;1278633;23;20001;-77
2021/03/27 00:15:38;;;;;;;9.23;4.00;;;;;;;11.31;64.32;95970.72;1272023;23;19998;-76
2021/03/27 00:16:23;;;;;;;7.70;4.57;;;;;;;11.30;64.09;95963.78;1271992;23;20023;-75
2021/03/27 00:17:00;;;;;;;9.40;4.50;;;;;;;11.28;64.27;95971.28;1273479;23;20013;-75
2021/03/27 00:17:41;;;;;;;7.72;4.22;;;;;;;11.25;64.19;95964.59;1271967;23;20028;-76
2021/03/27 00:18:27;;;;;;;7.55;4.22;;;;;;;11.24;64.48;95971.03;1271645;23;20002;-75
2021/03/27 00:19:07;;;;;;;6.55;3.90;;;;;;;11.23;64.22;95965.97;1271871;23;20001;-76
2021/03/27 00:19:55;;;;;;;7.60;4.22;;;;;;;11.19;64.66;95966.50;1272065;23;20370;-76
2021/03/27 00:20:48;;;;;;;9.45;4.50;;;;;;;11.18;64.32;95975.59;1278129;23;19997;-75
2021/03/27 00:21:30;;;;;;;7.20;4.53;;;;;;;11.16;64.65;95961.72;1267928;23;20086;-75
2021/03/27 00:22:04;;;;;;;13.45;4.75;;;;;;;11.15;64.37;95962.75;1271480;23;20006;-76
2021/03/27 00:22:43;;;;;;;8.20;4.63;;;;;;;11.15;64.87;95965.44;1265840;23;20006;-76
2021/03/27 00:23:25;;;;;;;7.97;4.30;;;;;;;11.15;64.44;95964.63;1276784;23;20008;-76
2021/03/27 00:24:06;;;;;;;9.48;4.63;;;;;;;11.15;65.32;95975.34;1272072;23;20450;-76
2021/03/27 00:25:08;;;;;;;6.68;4.50;;;;;;;11.11;65.16;95969.75;1278166;23;20009;-76
2021/03/27 00:25:41;;;;;;;7.47;4.50;;;;;;;11.14;65.33;95971.06;1280564;23;19993;-76
2021/03/27 00:26:14;;;;;;;6.50;4.20;;;;;;;11.12;65.24;95971.34;1278102;23;19997;-76
2021/03/27 00:26:52;;;;;;;8.20;4.88;;;;;;;11.13;64.70;95972.94;1271494;23;20001;-76
2021/03/27 00:27:25;;;;;;;6.93;4.32;;;;;;;11.11;65.14;95979.66;1259840;23;20081;-77
2021/03/27 00:28:09;;;;;;;5.85;4.22;;;;;;;11.10;65.13;95981.50;1253835;23;20089;-76
2021/03/27 00:28:48;;;;;;;7.85;4.70;;;;;;;11.06;64.85;95968.97;1264231;23;20331;-76
2021/03/27 00:29:24;;;;;;;9.73;4.43;;;;;;;11.05;65.39;95968.16;1259771;23;20002;-76
2021/03/27 00:30:00;;;;;;;8.77;4.50;;;;;;;11.04;64.52;95976.44;1265263;23;19998;-76
2021/03/27 00:30:39;;;;;;;7.60;4.75;;;;;;;11.03;65.02;95972.97;1264009;23;20065;-76
2021/03/27 00:31:17;;;;;;;7.75;4.43;;;;;;;11.04;65.35;95976.44;1263712;23;20093;-76
2021/03/27 00:32:22;;;;;;;7.55;4.60;;;;;;;10.99;65.16;95969.25;1265823;23;20098;-76
2021/03/27 00:32:53;;;;;;;9.00;4.50;;;;;;;11.01;65.23;95974.34;1268764;23;20010;-76
2021/03/27 00:33:26;;;;;;;9.35;5.40;;;;;;;11.02;64.85;95966.03;1259691;23;20075;-77
2021/03/27 00:34:02;;;;;;;7.20;4.60;;;;;;;11.02;64.99;95973.25;1259761;23;20003;-77
2021/03/27 00:34:35;;;;;;;10.25;4.90;;;;;;;11.03;64.79;95974.84;1259748;23;20050;-76
2021/03/27 00:35:17;;;;;;;8.15;5.07;;;;;;;11.01;64.84;95972.47;1259800;23;20002;-75
2021/03/27 00:36:09;;;;;;;9.20;4.82;;;;;;;11.01;65.00;95971.66;1259773;23;20074;-76
2021/03/27 00:36:43;;;;;;;6.20;4.53;;;;;;;11.00;64.94;95975.38;1260909;23;20003;-76
2021/03/27 00:37:15;;;;;;;9.50;5.07;;;;;;;10.99;64.97;95976.47;1266351;23;20005;-76
2021/03/27 00:37:45;;;;;;;8.98;5.00;;;;;;;11.00;65.21;95975.38;1254365;23;20062;-76
2021/03/27 00:38:21;;;;;;;9.20;4.70;;;;;;;11.00;65.49;95972.72;1266112;23;20479;-77
2021/03/27 00:39:31;;;;;;;9.23;5.20;;;;;;;10.98;65.14;95964.19;1271972;23;20120;-76
2021/03/27 00:40:12;;;;;;;9.18;5.07;;;;;;;10.98;65.57;95969.53;1247787;23;20007;-76
2021/03/27 00:40:45;;;;;;;11.20;4.93;;;;;;;10.99;65.38;95968.44;1272077;23;20331;-76
2021/03/27 00:41:23;;;;;;;7.72;4.90;;;;;;;10.98;65.51;95970.31;1268290;23;20405;-76
2021/03/27 00:41:55;;;;;;;9.15;5.15;;;;;;;10.98;65.12;95962.31;1271966;23;20006;-78
2021/03/27 00:42:31;;;;;;;8.85;4.85;;;;;;;10.94;65.42;95962.03;1272046;23;20001;-76
2021/03/27 00:43:22;;;;;;;8.27;5.00;;;;;;;10.94;65.17;95963.91;1262816;23;20400;-75
2021/03/27 00:43:56;;;;;;;7.15;4.70;;;;;;;10.96;64.88;95969.00;1265504;23;20368;-75
2021/03/27 00:44:30;;;;;;;8.82;4.95;;;;;;;10.96;64.98;95963.66;1253836;23;20082;-76
2021/03/27 00:45:11;;;;;;;8.18;4.72;;;;;;;10.97;64.97;95952.69;1259494;23;20082;-75
2021/03/27 00:45:44;;;;;;;9.15;5.03;;;;;;;10.98;65.42;95962.31;1263637;23;20499;-76
2021/03/27 00:46:16;;;;;;;9.52;5.03;;;;;;;10.96;65.33;95961.00;1266850;23;20003;-76
2021/03/27 00:46:46;;;;;;;9.45;5.00;;;;;;;10.97;65.72;95962.59;1269294;23;20037;-76
2021/03/27 00:47:19;;;;;;;7.67;4.70;;;;;;;10.97;65.61;95962.59;1265832;23;20471;-76
2021/03/27 00:47:55;;;;;;;8.00;5.18;;;;;;;10.96;65.67;95963.66;1260422;23;20009;-75
2021/03/27 00:48:31;;;;;;;9.63;5.25;;;;;;;10.95;65.44;95968.19;1261080;23;19999;-75
2021/03/27 00:49:06;;;;;;;10.93;4.97;;;;;;;10.96;65.51;95964.47;1256586;23;20070;-76
2021/03/27 00:49:44;;;;;;;8.75;4.93;;;;;;;10.98;64.99;95964.97;1253874;23;20443;-76
2021/03/27 00:50:39;;;;;;;7.93;4.88;;;;;;;10.95;64.75;95965.50;1257683;23;20122;-76
2021/03/27 00:51:14;;;;;;;10.80;4.90;;;;;;;10.96;65.18;95964.47;1266887;23;19998;-75
2021/03/27 00:51:56;;;;;;;9.75;5.03;;;;;;;10.96;65.23;95966.34;1271880;23;20459;-76
2021/03/27 00:52:26;;;;;;;8.52;4.78;;;;;;;10.96;65.30;95963.66;1259675;23;20026;-76
2021/03/27 00:53:00;;;;;;;9.97;4.80;;;;;;;10.98;64.53;95958.81;1263010;23;20014;-75
2021/03/27 00:53:48;;;;;;;8.05;4.65;;;;;;;10.97;65.20;95958.03;1259622;23;20003;-75
2021/03/27 00:54:30;;;;;;;8.35;5.10;;;;;;;10.96;64.71;95958.31;1259657;23;20424;-75
2021/03/27 00:55:08;;;;;;;9.10;4.80;;;;;;;10.96;65.15;95967.13;1259922;23;20432;-76
2021/03/27 00:55:48;;;;;;;6.85;4.45;;;;;;;10.94;65.21;95970.06;1265977;23;20088;-77
2021/03/27 00:56:23;;;;;;;7.75;4.40;;;;;;;10.94;65.55;95964.72;1259785;23;19998;-76
2021/03/27 00:57:05;;;;;;;15.02;4.82;;;;;;;10.93;65.74;95965.78;1252137;23;20022;-76
2021/03/27 00:57:51;;;;;;;7.55;4.72;;;;;;;10.92;65.58;95968.75;1265036;23;20376;-76
2021/03/27 00:58:40;;;;;;;7.32;4.40;;;;;;;10.92;65.67;95968.75;1265858;23;20061;-76
2021/03/27 00:59:18;;;;;;;9.18;4.63;;;;;;;10.92;65.78;95963.41;1271817;23;20001;-76
2021/03/27 01:00:05;;;;;;;9.95;4.50;;;;;;;10.88;65.53;95967.69;1271972;23;19998;-76
2021/03/27 01:00:46;;;;;;;8.88;4.43;;;;;;;10.87;65.93;95964.22;1271922;23;20002;-75
2021/03/27 01:01:16;;;;;;;7.70;4.75;;;;;;;10.86;65.84;95964.50;1265839;23;20037;-76
2021/03/27 01:01:47;;;;;;;7.07;4.53;;;;;;;10.85;65.85;95968.22;1259872;23;20300;-75
2021/03/27 01:02:17;;;;;;;8.73;4.80;;;;;;;10.85;66.04;95963.69;1253778;23;19999;-76
2021/03/27 01:02:53;;;;;;;10.73;4.97;;;;;;;10.85;65.79;95965.53;1259970;23;20034;-76
2021/03/27 01:03:33;;;;;;;8.95;5.03;;;;;;;10.84;65.92;95955.91;1260486;23;19995;-76
2021/03/27 01:04:04;;;;;;;9.07;4.82;;;;;;;10.85;66.00;95970.88;1262830;23;19998;-75
2021/03/27 01:04:34;;;;;;;7.97;4.80;;;;;;;10.85;65.83;95971.72;1265855;23;19998;-75
2021/03/27 01:05:08;;;;;;;10.90;5.20;;;;;;;10.84;65.98;95966.63;1268038;23;20033;-76
2021/03/27 01:05:38;;;;;;;7.93;4.90;;;;;;;10.83;66.13;95960.47;1271935;23;20024;-75
2021/03/27 01:06:11;;;;;;;9.03;5.17;;;;;;;10.83;66.22;95957.81;1265822;23;20009;-76
2021/03/27 01:06:44;;;;;;;11.40;4.90;;;;;;;10.81;66.67;95959.97;1265780;23;20005;-76
2021/03/27 01:07:15;;;;;;;10.60;5.28;;;;;;;10.80;66.70;95957.53;1260934;23;20536;-76
2021/03/27 01:07:46;;;;;;;8.67;5.50;;;;;;;10.78;66.58;95957.81;1265581;23;20058;-76
2021/03/27 01:08:17;;;;;;;8.13;5.40;;;;;;;10.78;66.33;95957.00;1265725;23;20005;-75
2021/03/27 01:08:48;;;;;;;7.93;5.25;;;;;;;10.78;66.82;95954.34;1260125;23;20003;-76
2021/03/27 01:09:27;;;;;;;10.68;5.85;;;;;;;10.73;66.73;95952.47;1254136;23;20011;-76
2021/03/27 01:10:08;;;;;;;10.02;5.63;;;;;;;10.73;66.88;95952.47;1255925;23;20003;-77
2021/03/27 01:10:46;;;;;;;8.20;5.75;;;;;;;10.74;66.91;95956.75;1263847;23;20029;-77
2021/03/27 01:11:24;;;;;;;9.65;5.65;;;;;;;10.72;67.00;95960.78;1264825;23;20009;-76
2021/03/27 01:12:00;;;;;;;7.90;5.72;;;;;;;10.68;67.01;95941.81;1259241;23;20009;-76
2021/03/27 01:12:36;;;;;;;8.80;5.82;;;;;;;10.67;67.39;95956.25;1247876;23;20010;-76
2021/03/27 01:13:09;;;;;;;9.77;6.07;;;;;;;10.60;68.04;95945.84;1259725;23;20009;-76
2021/03/27 01:13:42;;;;;;;9.80;6.05;;;;;;;10.59;67.95;95954.91;1265832;23;20003;-75
2021/03/27 01:14:18;;;;;;;9.95;6.72;;;;;;;10.53;68.66;95947.19;1262476;23;20005;-75
2021/03/27 01:14:50;;;;;;;10.40;6.80;;;;;;;10.48;69.29;95958.66;1262021;23;20002;-77
2021/03/27 01:15:30;;;;;;;10.38;6.65;;;;;;;10.47;68.87;95954.41;1259781;23;20404;-76
2021/03/27 01:16:03;;;;;;;10.05;6.50;;;;;;;10.41;69.37;95958.97;1269092;23;20049;-76
2021/03/27 01:16:40;;;;;;;10.13;6.90;;;;;;;10.44;69.25;95956.81;1256429;23;20050;-76
2021/03/27 01:17:14;;;;;;;11.82;7.28;;;;;;;10.41;69.95;95961.63;1263695;23;20002;-76
2021/03/27 01:17:48;;;;;;;17.27;7.30;;;;;;;10.30;70.68;95957.38;1257971;23;20061;-76
2021/03/27 01:18:23;;;;;;;10.70;7.45;;;;;;;10.24;70.83;95954.97;1265552;23;20074;-76
2021/03/27 01:18:58;;;;;;;14.18;7.78;;;;;;;10.22;70.88;95954.41;1271849;23;20444;-76
2021/03/27 01:19:34;;;;;;;13.38;7.57;;;;;;;10.19;71.51;95960.28;1265715;23;20078;-76
2021/03/27 01:20:26;;;;;;;12.63;7.22;;;;;;;10.15;71.18;95966.16;1265771;23;20002;-76
2021/03/27 01:20:57;;;;;;;10.95;7.85;;;;;;;10.13;71.56;95957.63;1271814;23;20452;-76
2021/03/27 01:21:33;;;;;;;13.57;8.02;;;;;;;10.09;71.84;95961.91;1265456;23;20427;-77
2021/03/27 01:22:06;;;;;;;11.70;7.65;;;;;;;10.11;71.43;95964.28;1259446;23;20035;-76
2021/03/27 01:22:37;;;;;;;12.57;8.18;;;;;;;10.08;71.96;95964.81;1253732;23;20002;-76
2021/03/27 01:23:07;;;;;;;11.77;7.63;;;;;;;10.02;72.22;95961.34;1261366;23;20013;-76
2021/03/27 01:23:38;;;;;;;14.53;8.40;;;;;;;10.05;72.16;95960.03;1267078;23;20041;-76
2021/03/27 01:24:12;;;;;;;13.23;8.30;;;;;;;10.04;72.26;95969.09;1266539;23;20002;-76
2021/03/27 01:24:43;;;;;;;11.63;8.35;;;;;;;10.02;72.56;95965.88;1260701;23;20002;-76
2021/03/27 01:25:13;;;;;;;15.90;7.45;;;;;;;10.01;72.53;95965.09;1259756;23;20013;-77
2021/03/27 01:25:44;;;;;;;12.33;8.87;;;;;;;9.97;72.70;95968.56;1254822;23;20440;-76
2021/03/27 01:26:16;;;;;;;15.53;8.93;;;;;;;9.95;72.93;95965.34;1260732;23;20327;-76
2021/03/27 01:26:49;;;;;;;13.57;8.23;;;;;;;9.89;73.44;95962.69;1266420;23;19998;-76
2021/03/27 01:27:27;;;;;;;14.98;8.70;;;;;;;9.88;73.32;95965.63;1265820;23;20053;-76
2021/03/27 01:28:16;;;;;;;12.73;8.80;;;;;;;9.88;73.22;95966.44;1262113;23;19997;-76
2021/03/27 01:29:00;;;;;;;12.20;8.70;;;;;;;9.82;73.46;95972.81;1265675;23;20002;-77
2021/03/27 01:29:50;;;;;;;13.65;9.13;;;;;;;9.79;73.48;95968.00;1272522;23;20040;-77
2021/03/27 01:30:44;;;;;;;11.77;8.02;;;;;;;9.78;73.59;95970.94;1275286;23;19997;-77
2021/03/27 01:31:39;;;;;;;16.08;9.25;;;;;;;9.72;74.13;95964.78;1278343;23;19997;-77
2021/03/27 01:32:35;;;;;;;24.25;9.27;;;;;;;9.65;74.30;95964.25;1258989;23;20011;-75
2021/03/27 01:33:19;;;;;;;17.25;9.05;;;;;;;9.63;74.31;95969.06;1272238;23;20444;-76
2021/03/27 01:34:00;;;;;;;16.73;9.40;;;;;;;9.61;74.33;95971.97;1272227;23;20002;-76
2021/03/27 01:34:41;;;;;;;12.40;9.10;;;;;;;9.60;74.26;95967.69;1266198;23;20037;-76
2021/03/27 01:35:35;;;;;;;15.35;9.13;;;;;;;9.49;74.65;95968.75;1272280;23;20335;-75
2021/03/27 01:36:17;;;;;;;16.25;8.60;;;;;;;9.48;74.76;95971.69;1266949;23;20041;-76
2021/03/27 01:36:58;;;;;;;17.33;9.45;;;;;;;9.45;75.04;95975.66;1267104;23;20013;-75
2021/03/27 01:38:13;;;;;;;17.83;9.38;;;;;;;9.42;75.36;95967.38;1266055;23;20001;-76
2021/03/27 01:38:54;;;;;;;14.93;9.23;;;;;;;9.38;75.33;95972.47;1272763;23;20451;-77
2021/03/27 01:39:26;;;;;;;13.82;9.25;;;;;;;9.36;75.46;95974.56;1278437;23;20076;-76
2021/03/27 01:39:59;;;;;;;14.07;8.80;;;;;;;9.37;75.37;95977.00;1272197;23;20031;-75
2021/03/27 01:40:51;;;;;;;12.60;9.15;;;;;;;9.37;75.35;95970.88;1266310;23;20372;-76
2021/03/27 01:41:54;;;;;;;17.58;9.43;;;;;;;9.36;75.26;95967.38;1272282;23;20100;-76
2021/03/27 01:42:54;;;;;;;17.70;9.45;;;;;;;9.34;75.79;95976.72;1276033;23;20368;-77
2021/03/27 01:43:38;;;;;;;13.55;9.32;;;;;;;9.31;75.38;95980.69;1278229;23;19997;-76
2021/03/27 01:44:29;;;;;;;14.85;9.10;;;;;;;9.34;75.36;95982.84;1280950;23;20005;-75
2021/03/27 01:45:14;;;;;;;15.30;9.30;;;;;;;9.33;75.77;95975.13;1284652;23;19997;-76
2021/03/27 01:45:47;;;;;;;15.45;9.70;;;;;;;9.36;75.63;95979.91;1283750;23;20001;-75
2021/03/27 01:46:38;;;;;;;14.05;9.13;;;;;;;9.34;75.38;95980.19;1278747;23;19997;-77
2021/03/27 01:47:36;;;;;;;16.23;9.48;;;;;;;9.37;75.42;95976.19;1278383;23;20087;-77
2021/03/27 01:48:36;;;;;;;16.05;9.60;;;;;;;9.36;75.56;95970.03;1278422;23;20336;-76
2021/03/27 01:49:25;;;;;;;17.05;9.40;;;;;;;9.35;75.35;95975.66;1266271;23;20045;-76
2021/03/27 01:50:20;;;;;;;15.60;8.77;;;;;;;9.36;75.44;95975.38;1267034;23;20007;-75
2021/03/27 01:50:54;;;;;;;16.25;9.30;;;;;;;9.38;75.45;95973.25;1278342;23;19997;-76
2021/03/27 01:51:38;;;;;;;15.25;9.82;;;;;;;9.40;75.38;95980.19;1272095;23;20101;-76
2021/03/27 01:52:14;;;;;;;15.32;9.98;;;;;;;9.42;75.67;95983.38;1272223;23;20136;-77
2021/03/27 01:52:56;;;;;;;12.93;9.07;;;;;;;9.41;75.52;95976.47;1266064;23;20022;-76
2021/03/27 01:53:41;;;;;;;15.75;9.52;;;;;;;9.37;75.83;95986.88;1259973;23;20014;-76
2021/03/27 01:54:17;;;;;;;15.18;9.95;;;;;;;9.38;76.16;95980.47;1260025;23;20072;-76
2021/03/27 01:55:06;;;;;;;13.32;8.57;;;;;;;9.36;75.83;95982.56;1266118;23;20065;-75
2021/03/27 01:55:43;;;;;;;12.93;8.38;;;;;;;9.35;76.05;95984.44;1272319;23;20449;-76
2021/03/27 01:56:42;;;;;;;15.35;9.80;;;;;;;9.38;75.68;95985.81;1272282;23;20010;-75
2021/03/27 01:57:16;;;;;;;14.60;8.57;;;;;;;9.40;75.47;95983.66;1272284;23;20033;-75
2021/03/27 01:58:09;;;;;;;14.13;9.00;;;;;;;9.44;74.67;95984.75;1266467;23;19997;-76
2021/03/27 01:58:44;;;;;;;12.80;7.35;;;;;;;9.55;74.33;95988.25;1274944;23;20029;-76
2021/03/27 01:59:26;;;;;;;10.98;7.25;;;;;;;9.59;73.99;95978.66;1272215;23;19997;-76
2021/03/27 01:59:58;;;;;;;10.15;7.10;;;;;;;9.72;73.07;95985.34;1271422;23;20002;-76
2021/03/27 02:00:31;;;;;;;11.10;7.10;;;;;;;9.75;72.68;95982.94;1266083;23;20029;-76
2021/03/27 02:01:07;;;;;;;12.45;6.72;;;;;;;9.78;72.84;95982.44;1266154;23;20340;-76
2021/03/27 02:01:42;;;;;;;11.93;6.95;;;;;;;9.82;72.83;95986.16;1260121;23;20425;-76
2021/03/27 02:02:17;;;;;;;11.48;6.80;;;;;;;9.86;72.10;95981.88;1256613;23;20054;-76
2021/03/27 02:03:07;;;;;;;10.93;6.68;;;;;;;9.94;71.88;95993.13;1257114;23;20007;-76
2021/03/27 02:04:01;;;;;;;10.48;7.10;;;;;;;9.95;71.65;95992.84;1272110;23;20006;-76
2021/03/27 02:04:35;;;;;;;11.15;6.85;;;;;;;10.00;71.34;95979.50;1268719;23;20040;-77
2021/03/27 02:05:13;;;;;;;12.48;6.80;;;;;;;10.10;70.86;95994.75;1260013;23;20029;-76
2021/03/27 02:05:54;;;;;;;11.18;6.63;;;;;;;10.15;70.55;95994.75;1254091;23;20042;-76
2021/03/27 02:06:33;;;;;;;12.32;7.13;;;;;;;10.20;70.21;95992.06;1260066;23;20425;-76
2021/03/27 02:07:24;;;;;;;12.55;7.03;;;;;;;10.23;70.33;95999.53;1271160;23;20028;-76
2021/03/27 02:08:07;;;;;;;10.00;6.68;;;;;;;10.24;70.13;95993.19;1266210;23;20436;-77
2021/03/27 02:08:44;;;;;;;11.07;6.68;;;;;;;10.28;70.38;96004.09;1272500;23;20005;-76
2021/03/27 02:09:27;;;;;;;13.50;7.28;;;;;;;10.30;70.16;96004.66;1278396;23;20001;-76
2021/03/27 02:10:14;;;;;;;14.55;7.13;;;;;;;10.29;70.54;96000.38;1278323;23;20007;-76
2021/03/27 02:10:57;;;;;;;12.23;6.20;;;;;;;10.32;70.80;96005.19;1278276;23;20063;-76
2021/03/27 02:12:08;;;;;;;8.75;5.75;;;;;;;10.33;69.99;96017.47;1266085;23;20327;-76
2021/03/27 02:12:53;;;;;;;12.13;7.13;;;;;;;10.29;70.27;95998.53;1272118;23;20084;-75
2021/03/27 02:13:29;;;;;;;12.43;6.57;;;;;;;10.28;70.70;96007.56;1278133;23;20007;-75
2021/03/27 02:14:12;;;;;;;11.50;7.70;;;;;;;10.26;70.97;96012.41;1272122;23;20461;-77
2021/03/27 02:14:51;;;;;;;11.18;7.80;;;;;;;10.25;70.72;96013.47;1272182;23;19998;-75
2021/03/27 02:15:43;;;;;;;17.50;8.25;;;;;;;10.22;71.17;96019.31;1272103;23;20076;-75
2021/03/27 02:16:28;;;;;;;10.50;7.50;;;;;;;10.16;72.07;96015.03;1272247;23;20455;-75
2021/03/27 02:17:02;;;;;;;14.70;8.25;;;;;;;10.13;72.13;96019.03;1277897;23;20036;-75
2021/03/27 02:17:47;;;;;;;13.15;7.63;;;;;;;10.08;72.19;96012.88;1267352;23;20458;-75
2021/03/27 02:18:25;;;;;;;13.13;8.18;;;;;;;10.06;72.07;96015.03;1272221;23;20386;-75
2021/03/27 02:19:15;;;;;;;11.65;7.80;;;;;;;10.02;72.63;96020.09;1265937;23;20383;-77
2021/03/27 02:19:54;;;;;;;;;;;;;;;9.99;72.59;96017.16;1266416;23;19998;-76
2021/03/27 02:21:01;;;;;;;11.50;8.32;;;;;;;9.95;72.51;96016.88;1266095;23;20007;-77
2021/03/27 02:21:49;;;;;;;14.32;8.90;;;;;;;9.89;72.43;96013.41;1274964;23;19998;-76
2021/03/27 02:22:38;;;;;;;13.88;7.90;;;;;;;9.87;73.03;96012.84;1278242;23;20001;-77
2021/03/27 02:23:27;;;;;;;13.05;8.15;;;;;;;9.81;73.71;96007.78;1261400;23;20006;-78
2021/03/27 02:24:09;;;;;;;13.10;8.70;;;;;;;9.78;73.83;96016.31;1266098;23;20347;-76
2021/03/27 02:24:57;;;;;;;12.93;8.43;;;;;;;9.75;74.20;96006.16;1255743;23;20003;-76
2021/03/27 02:25:46;;;;;;;12.10;7.80;;;;;;;9.72;74.35;96002.16;1272100;23;20412;-76
2021/03/27 02:26:41;;;;;;;12.23;8.13;;;;;;;9.71;74.35;96015.75;1275547;23;20136;-77
2021/03/27 02:27:34;;;;;;;12.93;8.55;;;;;;;9.67;73.66;95999.47;1282099;23;20008;-77
2021/03/27 02:28:15;;;;;;;12.18;8.05;;;;;;;9.63;74.67;96001.88;1278305;23;20454;-76
2021/03/27 02:28:58;;;;;;;12.68;8.65;;;;;;;9.61;74.69;95993.31;1278234;23;20087;-76
2021/03/27 02:30:01;;;;;;;12.93;8.05;;;;;;;9.60;74.53;95991.72;1278307;23;20005;-76
2021/03/27 02:30:34;;;;;;;11.60;7.93;;;;;;;9.59;74.26;95995.47;1284543;23;20004;-77
2021/03/27 02:31:12;;;;;;;12.00;8.40;;;;;;;9.56;74.79;95990.63;1278299;23;20012;-76
2021/03/27 02:31:43;;;;;;;14.02;7.85;;;;;;;9.55;74.32;95994.38;1271978;23;20008;-77
2021/03/27 02:32:17;;;;;;;11.83;7.60;;;;;;;9.55;74.85;95997.03;1272161;23;20005;-77
2021/03/27 02:32:59;;;;;;;14.60;7.85;;;;;;;9.56;74.63;95995.97;1278279;23;20004;-77
2021/03/27 02:33:47;;;;;;;12.20;8.27;;;;;;;9.55;74.67;95993.56;1278300;23;20000;-76
2021/03/27 02:34:20;;;;;;;14.40;8.20;;;;;;;9.58;74.81;95998.41;1272181;23;20005;-76
2021/03/27 02:35:05;;;;;;;12.38;7.95;;;;;;;9.55;75.24;95989.03;1278252;23;19996;-76
2021/03/27 02:35:47;;;;;;;15.00;8.55;;;;;;;9.53;75.36;95987.72;1278232;23;20012;-76
2021/03/27 02:36:40;;;;;;;13.55;7.72;;;;;;;9.52;75.55;95992.25;1278096;23;20442;-76
2021/03/27 02:37:29;;;;;;;11.98;7.45;;;;;;;9.49;75.13;95989.28;1277434;23;20426;-77
2021/03/27 02:38:20;;;;;;;13.05;7.68;;;;;;;9.47;75.39;95991.41;1275346;23;20023;-76
2021/03/27 02:39:25;;;;;;;11.68;7.90;;;;;;;9.45;75.74;95989.00;1272114;23;20496;-78
2021/03/27 02:40:06;;;;;;;12.05;8.35;;;;;;;9.44;75.68;95992.75;1266481;23;20015;-76
2021/03/27 02:40:37;;;;;;;12.10;8.20;;;;;;;9.44;75.67;95995.41;1269090;23;19998;-76
2021/03/27 02:41:26;;;;;;;11.00;7.30;;;;;;;9.42;75.63;95994.06;1273568;23;20096;-76
2021/03/27 02:42:01;;;;;;;13.75;7.93;;;;;;;9.41;76.32;95995.13;1277928;23;20079;-75
2021/03/27 02:42:52;;;;;;;12.45;7.85;;;;;;;9.39;75.84;95995.41;1283318;23;20054;-76
2021/03/27 02:43:26;;;;;;;15.63;8.02;;;;;;;9.44;76.18;95994.63;1278276;23;20032;-77
2021/03/27 02:44:18;;;;;;;11.27;7.65;;;;;;;9.45;75.63;96001.53;1278293;23;20418;-76
2021/03/27 02:44:59;;;;;;;11.45;7.70;;;;;;;9.40;75.82;96007.66;1272381;23;20009;-75
2021/03/27 02:45:36;;;;;;;13.80;8.10;;;;;;;9.37;76.38;96003.66;1284472;23;20000;-76
2021/03/27 02:46:22;;;;;;;13.00;7.68;;;;;;;9.37;76.66;96006.34;1283073;23;20409;-75
2021/03/27 02:46:55;;;;;;;12.70;7.50;;;;;;;9.37;76.59;96009.00;1271872;23;20017;-76
2021/03/27 02:47:34;;;;;;;13.95;7.78;;;;;;;9.38;76.78;96004.47;1272174;23;20363;-76
2021/03/27 02:48:30;;;;;;;11.32;7.35;;;;;;;9.36;76.37;96001.25;1260023;23;20409;-76
2021/03/27 02:49:15;;;;;;;15.57;8.18;;;;;;;9.36;76.95;96001.25;1261050;23;20446;-75
2021/03/27 02:50:26;;;;;;;11.70;7.88;;;;;;;9.36;76.35;96002.03;1275003;23;20009;-76
2021/03/27 02:51:23;;;;;;;13.75;7.32;;;;;;;9.37;76.68;95997.53;1278310;23;20024;-76
2021/03/27 02:52:15;;;;;;;13.40;7.80;;;;;;;9.37;76.89;95998.34;1278108;23;20530;-75
2021/03/27 02:53:04;;;;;;;13.77;7.95;;;;;;;9.36;77.07;95996.72;1278185;23;20107;-75
2021/03/27 02:53:44;;;;;;;13.27;8.05;;;;;;;9.35;77.04;95995.13;1278319;23;20005;-75
2021/03/27 02:54:50;;;;;;;11.85;8.43;;;;;;;9.35;76.95;95988.97;1272156;23;20502;-77
2021/03/27 02:55:58;;;;;;;14.20;8.23;;;;;;;9.31;77.20;95993.22;1266046;23;20431;-76
2021/03/27 02:57:05;;;;;;;11.80;7.72;;;;;;;9.32;77.07;95982.31;1272116;23;20006;-76
2021/03/27 02:57:41;;;;;;;13.93;8.00;;;;;;;9.30;77.24;95978.28;1247903;23;20043;-76
2021/03/27 02:58:23;;;;;;;11.63;7.50;;;;;;;9.28;77.39;95983.91;1258391;23;20434;-75
2021/03/27 02:59:24;;;;;;;12.52;7.40;;;;;;;9.28;77.50;95977.75;1274559;23;20048;-75
2021/03/27 03:00:12;;;;;;;14.25;8.13;;;;;;;9.27;77.60;95971.63;1278308;23;20005;-76
2021/03/27 03:01:01;;;;;;;12.38;7.93;;;;;;;9.29;77.22;95968.69;1278391;23;20031;-75
2021/03/27 03:01:44;;;;;;;16.05;8.43;;;;;;;9.28;77.32;95964.44;1278213;23;20132;-76
2021/03/27 03:02:41;;;;;;;12.13;7.95;;;;;;;9.29;77.57;95964.16;1278310;23;20028;-75
2021/03/27 03:03:35;;;;;;;14.00;7.85;;;;;;;9.30;77.41;95955.09;1266410;23;20089;-75
2021/03/27 03:04:09;;;;;;;11.65;7.68;;;;;;;9.28;77.32;95967.09;1262877;23;20021;-75
2021/03/27 03:04:47;;;;;;;14.98;7.70;;;;;;;9.28;77.48;95973.22;1269450;23;20008;-75
2021/03/27 03:05:36;;;;;;;13.65;7.80;;;;;;;9.25;77.69;95973.75;1265840;23;20045;-75
2021/03/27 03:06:27;;;;;;;12.80;7.85;;;;;;;9.26;77.48;95991.34;1254055;23;20432;-76
2021/03/27 03:07:19;;;;;;;13.65;8.65;;;;;;;9.28;77.43;95989.22;1263881;23;20002;-74
2021/03/27 03:08:18;;;;;;;16.00;8.20;;;;;;;9.25;77.58;95984.41;1278713;23;20066;-75
2021/03/27 03:09:19;;;;;;;17.75;8.75;;;;;;;9.26;77.72;95986.00;1278276;23;20009;-76
2021/03/27 03:09:57;;;;;;;13.30;8.64;;;;;;;9.24;77.85;95995.34;1259623;23;20010;-75
2021/03/27 03:10:42;;;;;;;12.88;7.90;;;;;;;9.22;77.65;95992.16;1267616;23;20002;-76
2021/03/27 03:11:20;;;;;;;13.65;8.10;;;;;;;9.21;77.92;95990.53;1278190;23;20005;-76
2021/03/27 03:11:53;;;;;;;15.63;8.30;;;;;;;9.20;78.32;95983.59;1272098;23;20077;-76
2021/03/27 03:12:40;;;;;;;12.70;8.10;;;;;;;9.18;78.10;95988.38;1272045;23;20001;-76
2021/03/27 03:13:16;;;;;;;13.07;7.97;;;;;;;9.17;78.14;95989.47;1272053;23;20073;-76
2021/03/27 03:13:50;;;;;;;15.25;8.20;;;;;;;9.15;78.35;95992.38;1283432;23;20028;-76
2021/03/27 03:14:31;;;;;;;11.90;7.88;;;;;;;9.14;78.63;95992.63;1284444;23;20486;-76
2021/03/27 03:15:11;;;;;;;13.45;7.85;;;;;;;9.13;78.59;95991.84;1274226;23;20016;-76
2021/03/27 03:15:57;;;;;;;13.13;8.05;;;;;;;9.11;78.81;95991.31;1265888;23;20392;-76
2021/03/27 03:16:28;;;;;;;15.25;8.50;;;;;;;9.10;78.55;95987.00;1266286;23;20001;-75
2021/03/27 03:17:03;;;;;;;11.50;7.68;;;;;;;9.09;79.01;95999.53;1271343;23;20073;-76